sensor_id;sensor_type;location;lat;lon;timestamp;P1;durP1;ratioP1;P2;durP2;ratioP2
37063;SDS011;23211;53.912;9.138;2022-08-25T00:00:47;9.88;;;3.38;;
37063;SDS011;23211;53.912;9.138;2022-08-25T00:03:34;5.43;;;3.67;;
37063;SDS011;23211;53.912;9.138;2022-08-25T00:06:20;8.80;;;3.42;;
37063;SDS011;23211;53.912;9.138;2022-08-25T00:09:06;11.40;;;3.25;;
37063;SDS011;23211;53.912;9.138;2022-08-25T00:11:53;8.70;;;3.40;;
37063;SDS011;23211;53.912;9.138;2022-08-25T00:14:39;8.77;;;3.15;;
37063;SDS011;23211;53.912;9.138;2022-08-25T00:17:27;11.55;;;3.88;;
37063;SDS011;23211;53.912;9.138;2022-08-25T00:20:13;5.55;;;2.78;;
37063;SDS011;23211;53.912;9.138;2022-08-25T00:22:59;14.43;;;3.58;;
37063;SDS011;23211;53.912;9.138;2022-08-25T00:25:45;6.65;;;3.25;;
37063;SDS011;23211;53.912;9.138;2022-08-25T00:28:32;7.55;;;3.28;;
37063;SDS011;23211;53.912;9.138;2022-08-25T00:31:19;8.23;;;3.45;;
37063;SDS011;23211;53.912;9.138;2022-08-25T00:34:09;7.95;;;3.38;;
37063;SDS011;23211;53.912;9.138;2022-08-25T00:36:57;10.90;;;3.55;;
37063;SDS011;23211;53.912;9.138;2022-08-25T00:39:43;8.38;;;3.20;;
37063;SDS011;23211;53.912;9.138;2022-08-25T00:42:29;7.22;;;4.05;;
37063;SDS011;23211;53.912;9.138;2022-08-25T00:45:16;9.32;;;2.97;;
37063;SDS011;23211;53.912;9.138;2022-08-25T00:48:02;4.07;;;2.83;;
37063;SDS011;23211;53.912;9.138;2022-08-25T00:50:48;12.93;;;3.30;;
37063;SDS011;23211;53.912;9.138;2022-08-25T00:53:34;5.18;;;3.22;;
37063;SDS011;23211;53.912;9.138;2022-08-25T00:56:21;6.40;;;3.40;;
37063;SDS011;23211;53.912;9.138;2022-08-25T00:59:07;7.57;;;3.30;;
37063;SDS011;23211;53.912;9.138;2022-08-25T01:01:54;8.38;;;3.15;;
37063;SDS011;23211;53.912;9.138;2022-08-25T01:04:41;6.53;;;3.55;;
37063;SDS011;23211;53.912;9.138;2022-08-25T01:07:28;6.43;;;3.35;;
37063;SDS011;23211;53.912;9.138;2022-08-25T01:10:14;10.10;;;3.60;;
37063;SDS011;23211;53.912;9.138;2022-08-25T01:13:07;11.15;;;3.75;;
37063;SDS011;23211;53.912;9.138;2022-08-25T01:15:57;7.35;;;3.67;;
37063;SDS011;23211;53.912;9.138;2022-08-25T01:18:53;5.88;;;3.05;;
37063;SDS011;23211;53.912;9.138;2022-08-25T01:21:42;11.07;;;3.65;;
37063;SDS011;23211;53.912;9.138;2022-08-25T01:27:18;6.82;;;2.97;;
37063;SDS011;23211;53.912;9.138;2022-08-25T01:30:04;6.30;;;3.30;;
37063;SDS011;23211;53.912;9.138;2022-08-25T01:32:51;9.18;;;3.10;;
37063;SDS011;23211;53.912;9.138;2022-08-25T01:35:37;9.85;;;4.55;;
37063;SDS011;23211;53.912;9.138;2022-08-25T01:38:24;5.85;;;3.60;;
37063;SDS011;23211;53.912;9.138;2022-08-25T01:41:11;8.15;;;3.55;;
37063;SDS011;23211;53.912;9.138;2022-08-25T01:43:56;11.68;;;4.07;;
37063;SDS011;23211;53.912;9.138;2022-08-25T01:46:42;8.38;;;3.17;;
37063;SDS011;23211;53.912;9.138;2022-08-25T01:49:28;8.02;;;3.80;;
37063;SDS011;23211;53.912;9.138;2022-08-25T01:52:15;5.10;;;3.55;;
37063;SDS011;23211;53.912;9.138;2022-08-25T01:55:05;6.43;;;3.55;;
37063;SDS011;23211;53.912;9.138;2022-08-25T01:57:51;14.18;;;3.67;;
37063;SDS011;23211;53.912;9.138;2022-08-25T02:00:37;5.88;;;3.35;;
37063;SDS011;23211;53.912;9.138;2022-08-25T02:03:30;6.10;;;3.40;;
37063;SDS011;23211;53.912;9.138;2022-08-25T02:06:21;7.03;;;3.45;;
37063;SDS011;23211;53.912;9.138;2022-08-25T02:09:14;6.30;;;3.33;;
37063;SDS011;23211;53.912;9.138;2022-08-25T02:12:01;7.85;;;3.88;;
37063;SDS011;23211;53.912;9.138;2022-08-25T02:14:48;8.68;;;3.30;;
37063;SDS011;23211;53.912;9.138;2022-08-25T02:17:34;11.75;;;4.03;;
37063;SDS011;23211;53.912;9.138;2022-08-25T02:20:21;8.27;;;3.38;;
37063;SDS011;23211;53.912;9.138;2022-08-25T02:23:08;7.35;;;4.03;;
37063;SDS011;23211;53.912;9.138;2022-08-25T02:25:54;7.88;;;3.88;;
37063;SDS011;23211;53.912;9.138;2022-08-25T02:28:42;5.60;;;3.30;;
37063;SDS011;23211;53.912;9.138;2022-08-25T02:31:29;6.85;;;3.78;;
37063;SDS011;23211;53.912;9.138;2022-08-25T02:34:15;6.38;;;3.88;;
37063;SDS011;23211;53.912;9.138;2022-08-25T02:37:00;6.68;;;3.28;;
37063;SDS011;23211;53.912;9.138;2022-08-25T02:39:46;7.82;;;3.78;;
37063;SDS011;23211;53.912;9.138;2022-08-25T02:42:32;6.35;;;3.72;;
37063;SDS011;23211;53.912;9.138;2022-08-25T02:45:18;5.75;;;4.03;;
37063;SDS011;23211;53.912;9.138;2022-08-25T02:48:04;9.98;;;4.00;;
37063;SDS011;23211;53.912;9.138;2022-08-25T02:50:50;7.28;;;3.45;;
37063;SDS011;23211;53.912;9.138;2022-08-25T02:53:37;5.47;;;3.40;;
37063;SDS011;23211;53.912;9.138;2022-08-25T02:56:24;7.88;;;3.70;;
37063;SDS011;23211;53.912;9.138;2022-08-25T02:59:11;10.25;;;4.47;;
37063;SDS011;23211;53.912;9.138;2022-08-25T03:01:56;13.07;;;3.55;;
37063;SDS011;23211;53.912;9.138;2022-08-25T03:04:42;6.70;;;3.95;;
37063;SDS011;23211;53.912;9.138;2022-08-25T03:07:28;11.25;;;3.65;;
37063;SDS011;23211;53.912;9.138;2022-08-25T03:10:16;7.68;;;3.67;;
37063;SDS011;23211;53.912;9.138;2022-08-25T03:13:04;6.25;;;3.92;;
37063;SDS011;23211;53.912;9.138;2022-08-25T03:15:50;5.65;;;3.40;;
37063;SDS011;23211;53.912;9.138;2022-08-25T03:18:37;7.82;;;3.63;;
37063;SDS011;23211;53.912;9.138;2022-08-25T03:21:24;7.45;;;4.03;;
37063;SDS011;23211;53.912;9.138;2022-08-25T03:24:10;6.20;;;3.90;;
37063;SDS011;23211;53.912;9.138;2022-08-25T03:26:56;7.95;;;4.05;;
37063;SDS011;23211;53.912;9.138;2022-08-25T03:29:42;9.30;;;4.07;;
37063;SDS011;23211;53.912;9.138;2022-08-25T03:32:28;5.20;;;4.03;;
37063;SDS011;23211;53.912;9.138;2022-08-25T03:35:15;8.45;;;4.10;;
37063;SDS011;23211;53.912;9.138;2022-08-25T03:38:02;8.38;;;3.88;;
37063;SDS011;23211;53.912;9.138;2022-08-25T03:40:48;7.88;;;3.97;;
37063;SDS011;23211;53.912;9.138;2022-08-25T03:43:34;8.20;;;3.78;;
37063;SDS011;23211;53.912;9.138;2022-08-25T03:46:31;6.90;;;4.10;;
37063;SDS011;23211;53.912;9.138;2022-08-25T03:49:20;7.28;;;4.00;;
37063;SDS011;23211;53.912;9.138;2022-08-25T03:52:07;12.65;;;4.68;;
37063;SDS011;23211;53.912;9.138;2022-08-25T03:54:53;6.90;;;4.03;;
37063;SDS011;23211;53.912;9.138;2022-08-25T03:57:39;10.52;;;4.22;;
37063;SDS011;23211;53.912;9.138;2022-08-25T04:00:25;9.48;;;4.25;;
37063;SDS011;23211;53.912;9.138;2022-08-25T04:03:11;7.20;;;4.28;;
37063;SDS011;23211;53.912;9.138;2022-08-25T04:05:59;9.70;;;4.15;;
37063;SDS011;23211;53.912;9.138;2022-08-25T04:08:47;8.10;;;3.90;;
37063;SDS011;23211;53.912;9.138;2022-08-25T04:11:33;5.90;;;4.50;;
37063;SDS011;23211;53.912;9.138;2022-08-25T04:14:20;6.78;;;4.20;;
37063;SDS011;23211;53.912;9.138;2022-08-25T04:17:06;9.52;;;4.53;;
37063;SDS011;23211;53.912;9.138;2022-08-25T04:19:52;6.30;;;3.97;;
37063;SDS011;23211;53.912;9.138;2022-08-25T04:22:38;9.05;;;4.55;;
37063;SDS011;23211;53.912;9.138;2022-08-25T04:25:24;9.02;;;4.50;;
37063;SDS011;23211;53.912;9.138;2022-08-25T04:28:10;5.93;;;3.97;;
37063;SDS011;23211;53.912;9.138;2022-08-25T04:30:56;8.32;;;4.70;;
37063;SDS011;23211;53.912;9.138;2022-08-25T04:33:42;9.85;;;4.47;;
37063;SDS011;23211;53.912;9.138;2022-08-25T04:36:28;10.43;;;4.28;;
37063;SDS011;23211;53.912;9.138;2022-08-25T04:39:14;5.55;;;3.88;;
37063;SDS011;23211;53.912;9.138;2022-08-25T04:42:00;8.38;;;4.65;;
37063;SDS011;23211;53.912;9.138;2022-08-25T04:44:47;6.15;;;4.38;;
37063;SDS011;23211;53.912;9.138;2022-08-25T04:47:37;6.43;;;4.57;;
37063;SDS011;23211;53.912;9.138;2022-08-25T04:50:23;9.88;;;4.90;;
37063;SDS011;23211;53.912;9.138;2022-08-25T04:53:10;7.85;;;4.35;;
37063;SDS011;23211;53.912;9.138;2022-08-25T04:55:56;8.98;;;4.28;;
37063;SDS011;23211;53.912;9.138;2022-08-25T04:58:41;9.25;;;4.82;;
37063;SDS011;23211;53.912;9.138;2022-08-25T05:01:28;7.25;;;4.53;;
37063;SDS011;23211;53.912;9.138;2022-08-25T05:04:14;8.95;;;4.57;;
37063;SDS011;23211;53.912;9.138;2022-08-25T05:07:01;11.40;;;4.82;;
37063;SDS011;23211;53.912;9.138;2022-08-25T05:09:48;8.35;;;4.32;;
37063;SDS011;23211;53.912;9.138;2022-08-25T05:12:34;6.97;;;4.30;;
37063;SDS011;23211;53.912;9.138;2022-08-25T05:15:20;4.72;;;3.90;;
37063;SDS011;23211;53.912;9.138;2022-08-25T05:18:25;10.85;;;4.68;;
37063;SDS011;23211;53.912;9.138;2022-08-25T05:21:15;6.97;;;4.65;;
37063;SDS011;23211;53.912;9.138;2022-08-25T05:24:03;8.90;;;4.75;;
37063;SDS011;23211;53.912;9.138;2022-08-25T05:26:49;13.20;;;5.22;;
37063;SDS011;23211;53.912;9.138;2022-08-25T05:29:34;11.98;;;6.30;;
37063;SDS011;23211;53.912;9.138;2022-08-25T05:32:20;10.23;;;5.75;;
37063;SDS011;23211;53.912;9.138;2022-08-25T05:35:06;8.80;;;6.40;;
37063;SDS011;23211;53.912;9.138;2022-08-25T05:37:52;11.88;;;7.82;;
37063;SDS011;23211;53.912;9.138;2022-08-25T05:40:39;12.00;;;7.20;;
37063;SDS011;23211;53.912;9.138;2022-08-25T05:43:25;12.90;;;9.10;;
37063;SDS011;23211;53.912;9.138;2022-08-25T05:46:11;11.85;;;7.57;;
37063;SDS011;23211;53.912;9.138;2022-08-25T05:48:57;13.13;;;8.07;;
37063;SDS011;23211;53.912;9.138;2022-08-25T05:51:43;20.00;;;8.13;;
37063;SDS011;23211;53.912;9.138;2022-08-25T05:54:29;11.70;;;7.75;;
37063;SDS011;23211;53.912;9.138;2022-08-25T05:57:16;13.63;;;8.63;;
37063;SDS011;23211;53.912;9.138;2022-08-25T06:00:03;19.30;;;7.93;;
37063;SDS011;23211;53.912;9.138;2022-08-25T06:02:57;16.88;;;9.20;;
37063;SDS011;23211;53.912;9.138;2022-08-25T06:05:43;15.82;;;9.55;;
37063;SDS011;23211;53.912;9.138;2022-08-25T06:08:29;13.95;;;9.57;;
37063;SDS011;23211;53.912;9.138;2022-08-25T06:11:18;15.60;;;9.55;;
37063;SDS011;23211;53.912;9.138;2022-08-25T06:14:03;21.52;;;10.05;;
37063;SDS011;23211;53.912;9.138;2022-08-25T06:16:50;15.98;;;8.38;;
37063;SDS011;23211;53.912;9.138;2022-08-25T06:19:36;14.45;;;7.45;;
37063;SDS011;23211;53.912;9.138;2022-08-25T06:22:22;9.63;;;7.38;;
37063;SDS011;23211;53.912;9.138;2022-08-25T06:25:11;12.30;;;6.78;;
37063;SDS011;23211;53.912;9.138;2022-08-25T06:27:58;11.35;;;7.18;;
37063;SDS011;23211;53.912;9.138;2022-08-25T06:30:45;15.20;;;8.32;;
37063;SDS011;23211;53.912;9.138;2022-08-25T06:33:31;13.15;;;8.25;;
37063;SDS011;23211;53.912;9.138;2022-08-25T06:36:17;12.63;;;8.27;;
37063;SDS011;23211;53.912;9.138;2022-08-25T06:39:04;14.73;;;8.48;;
37063;SDS011;23211;53.912;9.138;2022-08-25T06:41:51;14.25;;;8.32;;
37063;SDS011;23211;53.912;9.138;2022-08-25T06:44:38;10.70;;;7.57;;
37063;SDS011;23211;53.912;9.138;2022-08-25T06:47:25;13.90;;;7.50;;
37063;SDS011;23211;53.912;9.138;2022-08-25T06:50:11;14.52;;;9.77;;
37063;SDS011;23211;53.912;9.138;2022-08-25T06:52:57;12.65;;;8.05;;
37063;SDS011;23211;53.912;9.138;2022-08-25T06:55:43;11.35;;;7.25;;
37063;SDS011;23211;53.912;9.138;2022-08-25T06:58:29;12.13;;;9.85;;
37063;SDS011;23211;53.912;9.138;2022-08-25T07:01:19;15.98;;;9.38;;
37063;SDS011;23211;53.912;9.138;2022-08-25T07:04:08;27.33;;;9.57;;
37063;SDS011;23211;53.912;9.138;2022-08-25T07:06:54;21.67;;;9.38;;
37063;SDS011;23211;53.912;9.138;2022-08-25T07:09:39;15.55;;;9.43;;
37063;SDS011;23211;53.912;9.138;2022-08-25T07:12:25;25.60;;;9.45;;
37063;SDS011;23211;53.912;9.138;2022-08-25T07:15:12;15.82;;;8.90;;
37063;SDS011;23211;53.912;9.138;2022-08-25T07:17:58;15.73;;;9.07;;
37063;SDS011;23211;53.912;9.138;2022-08-25T07:20:43;25.13;;;10.65;;
37063;SDS011;23211;53.912;9.138;2022-08-25T07:23:30;21.08;;;9.27;;
37063;SDS011;23211;53.912;9.138;2022-08-25T07:26:20;19.67;;;8.32;;
37063;SDS011;23211;53.912;9.138;2022-08-25T07:29:16;26.00;;;9.27;;
37063;SDS011;23211;53.912;9.138;2022-08-25T07:32:09;20.42;;;8.30;;
37063;SDS011;23211;53.912;9.138;2022-08-25T07:34:55;17.08;;;7.80;;
37063;SDS011;23211;53.912;9.138;2022-08-25T07:37:59;21.60;;;8.52;;
37063;SDS011;23211;53.912;9.138;2022-08-25T07:40:45;30.48;;;10.75;;
37063;SDS011;23211;53.912;9.138;2022-08-25T07:43:38;16.10;;;7.68;;
37063;SDS011;23211;53.912;9.138;2022-08-25T07:46:26;18.45;;;8.20;;
37063;SDS011;23211;53.912;9.138;2022-08-25T07:49:12;17.58;;;7.60;;
37063;SDS011;23211;53.912;9.138;2022-08-25T07:51:58;16.65;;;7.20;;
37063;SDS011;23211;53.912;9.138;2022-08-25T07:54:44;23.45;;;10.32;;
37063;SDS011;23211;53.912;9.138;2022-08-25T07:57:30;20.45;;;10.05;;
37063;SDS011;23211;53.912;9.138;2022-08-25T08:00:15;28.08;;;9.77;;
37063;SDS011;23211;53.912;9.138;2022-08-25T08:03:05;24.10;;;8.63;;
37063;SDS011;23211;53.912;9.138;2022-08-25T08:05:52;19.80;;;8.07;;
37063;SDS011;23211;53.912;9.138;2022-08-25T08:08:41;18.80;;;7.38;;
37063;SDS011;23211;53.912;9.138;2022-08-25T08:11:30;13.98;;;6.72;;
37063;SDS011;23211;53.912;9.138;2022-08-25T08:14:21;15.68;;;7.97;;
37063;SDS011;23211;53.912;9.138;2022-08-25T08:17:08;17.63;;;8.73;;
37063;SDS011;23211;53.912;9.138;2022-08-25T08:19:54;15.25;;;7.18;;
37063;SDS011;23211;53.912;9.138;2022-08-25T08:22:40;17.67;;;8.57;;
37063;SDS011;23211;53.912;9.138;2022-08-25T08:25:27;19.02;;;8.98;;
37063;SDS011;23211;53.912;9.138;2022-08-25T08:28:13;15.55;;;7.40;;
37063;SDS011;23211;53.912;9.138;2022-08-25T08:30:59;14.05;;;7.63;;
37063;SDS011;23211;53.912;9.138;2022-08-25T08:33:45;13.82;;;7.97;;
37063;SDS011;23211;53.912;9.138;2022-08-25T08:36:32;10.85;;;7.13;;
37063;SDS011;23211;53.912;9.138;2022-08-25T08:39:18;16.05;;;8.07;;
37063;SDS011;23211;53.912;9.138;2022-08-25T08:45:43;15.32;;;7.80;;
37063;SDS011;23211;53.912;9.138;2022-08-25T08:51:44;12.38;;;5.82;;
37063;SDS011;23211;53.912;9.138;2022-08-25T08:54:37;15.43;;;6.07;;
37063;SDS011;23211;53.912;9.138;2022-08-25T08:57:25;8.60;;;5.88;;
37063;SDS011;23211;53.912;9.138;2022-08-25T09:00:13;11.88;;;6.97;;
37063;SDS011;23211;53.912;9.138;2022-08-25T09:05:52;15.77;;;8.80;;
37063;SDS011;23211;53.912;9.138;2022-08-25T09:08:41;10.02;;;7.03;;
37063;SDS011;23211;53.912;9.138;2022-08-25T09:20:59;14.18;;;8.48;;
37063;SDS011;23211;53.912;9.138;2022-08-25T09:27:05;27.17;;;14.68;;
37063;SDS011;23211;53.912;9.138;2022-08-25T09:30:10;15.15;;;11.00;;
37063;SDS011;23211;53.912;9.138;2022-08-25T09:32:59;16.85;;;10.75;;
37063;SDS011;23211;53.912;9.138;2022-08-25T09:35:49;22.45;;;11.77;;
37063;SDS011;23211;53.912;9.138;2022-08-25T09:38:37;22.80;;;14.43;;
37063;SDS011;23211;53.912;9.138;2022-08-25T09:41:39;17.33;;;10.85;;
37063;SDS011;23211;53.912;9.138;2022-08-25T09:50:03;12.02;;;8.85;;
37063;SDS011;23211;53.912;9.138;2022-08-25T09:52:49;14.68;;;11.25;;
37063;SDS011;23211;53.912;9.138;2022-08-25T09:55:35;14.15;;;9.35;;
37063;SDS011;23211;53.912;9.138;2022-08-25T09:58:24;16.23;;;10.00;;
37063;SDS011;23211;53.912;9.138;2022-08-25T10:01:18;12.90;;;9.25;;
37063;SDS011;23211;53.912;9.138;2022-08-25T10:04:10;11.57;;;9.32;;
37063;SDS011;23211;53.912;9.138;2022-08-25T10:06:55;14.00;;;8.80;;
37063;SDS011;23211;53.912;9.138;2022-08-25T10:09:44;12.02;;;8.20;;
37063;SDS011;23211;53.912;9.138;2022-08-25T10:12:41;11.90;;;8.65;;
37063;SDS011;23211;53.912;9.138;2022-08-25T10:15:32;10.30;;;8.15;;
37063;SDS011;23211;53.912;9.138;2022-08-25T10:18:26;14.48;;;10.38;;
37063;SDS011;23211;53.912;9.138;2022-08-25T10:21:14;21.92;;;9.63;;
37063;SDS011;23211;53.912;9.138;2022-08-25T10:24:03;14.25;;;9.75;;
37063;SDS011;23211;53.912;9.138;2022-08-25T10:39:49;13.30;;;8.35;;
37063;SDS011;23211;53.912;9.138;2022-08-25T10:45:29;9.35;;;6.63;;
37063;SDS011;23211;53.912;9.138;2022-08-25T11:00:13;6.30;;;4.47;;
37063;SDS011;23211;53.912;9.138;2022-08-25T11:03:08;11.63;;;4.57;;
37063;SDS011;23211;53.912;9.138;2022-08-25T11:06:03;7.15;;;4.50;;
37063;SDS011;23211;53.912;9.138;2022-08-25T11:08:58;8.45;;;4.05;;
37063;SDS011;23211;53.912;9.138;2022-08-25T11:14:54;8.77;;;4.30;;
37063;SDS011;23211;53.912;9.138;2022-08-25T11:20:40;7.50;;;4.05;;
37063;SDS011;23211;53.912;9.138;2022-08-25T11:23:35;6.25;;;3.63;;
37063;SDS011;23211;53.912;9.138;2022-08-25T11:26:27;6.35;;;3.35;;
37063;SDS011;23211;53.912;9.138;2022-08-25T11:29:19;4.28;;;3.40;;
37063;SDS011;23211;53.912;9.138;2022-08-25T11:32:08;7.85;;;3.70;;
37063;SDS011;23211;53.912;9.138;2022-08-25T11:34:55;11.70;;;3.83;;
37063;SDS011;23211;53.912;9.138;2022-08-25T11:54:03;7.47;;;3.60;;
37063;SDS011;23211;53.912;9.138;2022-08-25T11:57:33;4.07;;;3.67;;
37063;SDS011;23211;53.912;9.138;2022-08-25T12:06:28;7.93;;;4.00;;
37063;SDS011;23211;53.912;9.138;2022-08-25T12:09:16;8.18;;;3.90;;
37063;SDS011;23211;53.912;9.138;2022-08-25T12:12:54;8.93;;;3.15;;
37063;SDS011;23211;53.912;9.138;2022-08-25T12:15:23;9.63;;;3.40;;
37063;SDS011;23211;53.912;9.138;2022-08-25T12:21:07;6.53;;;3.40;;
37063;SDS011;23211;53.912;9.138;2022-08-25T12:26:51;8.20;;;3.78;;
37063;SDS011;23211;53.912;9.138;2022-08-25T12:29:42;6.32;;;3.78;;
37063;SDS011;23211;53.912;9.138;2022-08-25T12:35:57;6.68;;;2.95;;
37063;SDS011;23211;53.912;9.138;2022-08-25T12:38:49;7.57;;;3.28;;
37063;SDS011;23211;53.912;9.138;2022-08-25T12:41:37;5.15;;;3.03;;
37063;SDS011;23211;53.912;9.138;2022-08-25T12:44:40;7.50;;;3.35;;
37063;SDS011;23211;53.912;9.138;2022-08-25T12:47:31;3.42;;;2.90;;
37063;SDS011;23211;53.912;9.138;2022-08-25T12:56:29;5.38;;;3.10;;
37063;SDS011;23211;53.912;9.138;2022-08-25T12:59:22;4.60;;;2.92;;
37063;SDS011;23211;53.912;9.138;2022-08-25T13:11:43;5.32;;;3.20;;
37063;SDS011;23211;53.912;9.138;2022-08-25T13:14:36;6.90;;;2.97;;
37063;SDS011;23211;53.912;9.138;2022-08-25T13:17:27;10.35;;;3.05;;
37063;SDS011;23211;53.912;9.138;2022-08-25T13:20:24;12.77;;;3.60;;
37063;SDS011;23211;53.912;9.138;2022-08-25T13:23:15;5.75;;;2.92;;
37063;SDS011;23211;53.912;9.138;2022-08-25T13:26:04;5.63;;;2.78;;
37063;SDS011;23211;53.912;9.138;2022-08-25T13:28:55;7.43;;;2.90;;
37063;SDS011;23211;53.912;9.138;2022-08-25T13:34:43;3.03;;;2.72;;
37063;SDS011;23211;53.912;9.138;2022-08-25T13:37:29;4.95;;;2.45;;
37063;SDS011;23211;53.912;9.138;2022-08-25T13:40:26;8.10;;;2.63;;
37063;SDS011;23211;53.912;9.138;2022-08-25T13:43:14;4.43;;;2.42;;
37063;SDS011;23211;53.912;9.138;2022-08-25T13:46:00;4.55;;;2.97;;
37063;SDS011;23211;53.912;9.138;2022-08-25T13:48:46;6.85;;;2.88;;
37063;SDS011;23211;53.912;9.138;2022-08-25T13:51:33;3.33;;;2.25;;
37063;SDS011;23211;53.912;9.138;2022-08-25T13:54:24;5.10;;;2.30;;
37063;SDS011;23211;53.912;9.138;2022-08-25T13:57:14;5.03;;;2.50;;
37063;SDS011;23211;53.912;9.138;2022-08-25T14:00:07;3.60;;;2.47;;
37063;SDS011;23211;53.912;9.138;2022-08-25T14:02:55;4.75;;;3.08;;
37063;SDS011;23211;53.912;9.138;2022-08-25T14:05:42;3.83;;;2.35;;
37063;SDS011;23211;53.912;9.138;2022-08-25T14:08:37;5.45;;;2.60;;
37063;SDS011;23211;53.912;9.138;2022-08-25T14:17:08;3.35;;;2.90;;
37063;SDS011;23211;53.912;9.138;2022-08-25T14:19:55;6.30;;;2.60;;
37063;SDS011;23211;53.912;9.138;2022-08-25T14:22:41;3.83;;;2.38;;
37063;SDS011;23211;53.912;9.138;2022-08-25T14:25:28;4.95;;;2.47;;
37063;SDS011;23211;53.912;9.138;2022-08-25T14:28:16;5.47;;;2.38;;
37063;SDS011;23211;53.912;9.138;2022-08-25T14:31:05;5.22;;;2.72;;
37063;SDS011;23211;53.912;9.138;2022-08-25T14:36:47;3.20;;;2.30;;
37063;SDS011;23211;53.912;9.138;2022-08-25T14:39:34;5.50;;;2.72;;
37063;SDS011;23211;53.912;9.138;2022-08-25T14:42:19;7.38;;;2.28;;
37063;SDS011;23211;53.912;9.138;2022-08-25T14:45:07;4.80;;;2.70;;
37063;SDS011;23211;53.912;9.138;2022-08-25T14:47:53;6.20;;;2.90;;
37063;SDS011;23211;53.912;9.138;2022-08-25T14:50:40;6.97;;;2.70;;
37063;SDS011;23211;53.912;9.138;2022-08-25T14:53:26;7.38;;;2.65;;
37063;SDS011;23211;53.912;9.138;2022-08-25T14:56:12;4.45;;;2.60;;
37063;SDS011;23211;53.912;9.138;2022-08-25T14:58:58;6.35;;;2.65;;
37063;SDS011;23211;53.912;9.138;2022-08-25T15:01:45;6.97;;;2.92;;
37063;SDS011;23211;53.912;9.138;2022-08-25T15:04:31;3.53;;;2.17;;
37063;SDS011;23211;53.912;9.138;2022-08-25T15:07:17;4.85;;;2.30;;
37063;SDS011;23211;53.912;9.138;2022-08-25T15:10:23;5.88;;;2.83;;
37063;SDS011;23211;53.912;9.138;2022-08-25T15:13:09;3.95;;;2.80;;
37063;SDS011;23211;53.912;9.138;2022-08-25T15:15:55;4.70;;;2.33;;
37063;SDS011;23211;53.912;9.138;2022-08-25T15:18:41;7.13;;;2.80;;
37063;SDS011;23211;53.912;9.138;2022-08-25T15:21:28;4.53;;;2.40;;
37063;SDS011;23211;53.912;9.138;2022-08-25T15:24:17;9.10;;;3.20;;
37063;SDS011;23211;53.912;9.138;2022-08-25T15:27:04;6.35;;;2.53;;
37063;SDS011;23211;53.912;9.138;2022-08-25T15:29:51;4.18;;;2.30;;
37063;SDS011;23211;53.912;9.138;2022-08-25T15:32:37;5.72;;;2.83;;
37063;SDS011;23211;53.912;9.138;2022-08-25T15:35:23;4.25;;;2.47;;
37063;SDS011;23211;53.912;9.138;2022-08-25T15:38:09;3.22;;;2.00;;
37063;SDS011;23211;53.912;9.138;2022-08-25T15:40:54;6.32;;;2.70;;
37063;SDS011;23211;53.912;9.138;2022-08-25T15:43:40;8.68;;;2.90;;
37063;SDS011;23211;53.912;9.138;2022-08-25T15:46:27;3.58;;;2.40;;
37063;SDS011;23211;53.912;9.138;2022-08-25T15:49:14;5.82;;;2.45;;
37063;SDS011;23211;53.912;9.138;2022-08-25T15:52:00;3.63;;;2.83;;
37063;SDS011;23211;53.912;9.138;2022-08-25T15:54:46;4.93;;;2.45;;
37063;SDS011;23211;53.912;9.138;2022-08-25T15:57:32;5.82;;;2.40;;
37063;SDS011;23211;53.912;9.138;2022-08-25T16:00:18;7.07;;;2.78;;
37063;SDS011;23211;53.912;9.138;2022-08-25T16:03:04;7.57;;;2.65;;
37063;SDS011;23211;53.912;9.138;2022-08-25T16:05:51;6.85;;;2.30;;
37063;SDS011;23211;53.912;9.138;2022-08-25T16:08:37;7.55;;;2.92;;
37063;SDS011;23211;53.912;9.138;2022-08-25T16:11:24;4.18;;;2.72;;
37063;SDS011;23211;53.912;9.138;2022-08-25T16:14:12;8.32;;;2.85;;
37063;SDS011;23211;53.912;9.138;2022-08-25T16:16:59;3.22;;;2.50;;
37063;SDS011;23211;53.912;9.138;2022-08-25T16:19:45;7.57;;;2.40;;
37063;SDS011;23211;53.912;9.138;2022-08-25T16:22:31;4.07;;;2.53;;
37063;SDS011;23211;53.912;9.138;2022-08-25T16:25:18;6.00;;;2.45;;
37063;SDS011;23211;53.912;9.138;2022-08-25T16:28:04;4.35;;;2.55;;
37063;SDS011;23211;53.912;9.138;2022-08-25T16:30:49;5.05;;;2.60;;
37063;SDS011;23211;53.912;9.138;2022-08-25T16:33:35;9.07;;;2.58;;
37063;SDS011;23211;53.912;9.138;2022-08-25T16:36:22;3.75;;;2.22;;
37063;SDS011;23211;53.912;9.138;2022-08-25T16:39:08;4.47;;;2.50;;
37063;SDS011;23211;53.912;9.138;2022-08-25T16:41:55;7.07;;;2.40;;
37063;SDS011;23211;53.912;9.138;2022-08-25T16:44:41;5.57;;;2.88;;
37063;SDS011;23211;53.912;9.138;2022-08-25T16:47:27;4.43;;;2.63;;
37063;SDS011;23211;53.912;9.138;2022-08-25T16:50:13;4.05;;;2.63;;
37063;SDS011;23211;53.912;9.138;2022-08-25T16:53:00;6.25;;;2.75;;
37063;SDS011;23211;53.912;9.138;2022-08-25T16:56:04;5.68;;;2.50;;
37063;SDS011;23211;53.912;9.138;2022-08-25T16:58:51;5.00;;;2.45;;
37063;SDS011;23211;53.912;9.138;2022-08-25T17:01:40;4.85;;;2.92;;
37063;SDS011;23211;53.912;9.138;2022-08-25T17:04:26;4.50;;;2.95;;
37063;SDS011;23211;53.912;9.138;2022-08-25T17:07:12;4.28;;;3.00;;
37063;SDS011;23211;53.912;9.138;2022-08-25T17:09:58;6.75;;;2.58;;
37063;SDS011;23211;53.912;9.138;2022-08-25T17:12:44;9.85;;;3.20;;
37063;SDS011;23211;53.912;9.138;2022-08-25T17:15:30;5.57;;;3.25;;
37063;SDS011;23211;53.912;9.138;2022-08-25T17:18:16;5.55;;;3.20;;
37063;SDS011;23211;53.912;9.138;2022-08-25T17:21:03;6.30;;;3.63;;
37063;SDS011;23211;53.912;9.138;2022-08-25T17:23:52;3.55;;;3.25;;
37063;SDS011;23211;53.912;9.138;2022-08-25T17:26:40;4.45;;;2.70;;
37063;SDS011;23211;53.912;9.138;2022-08-25T17:29:27;8.57;;;3.30;;
37063;SDS011;23211;53.912;9.138;2022-08-25T17:32:13;5.35;;;2.88;;
37063;SDS011;23211;53.912;9.138;2022-08-25T17:34:58;14.63;;;2.85;;
37063;SDS011;23211;53.912;9.138;2022-08-25T17:37:44;8.68;;;3.38;;
37063;SDS011;23211;53.912;9.138;2022-08-25T17:40:30;4.95;;;3.38;;
37063;SDS011;23211;53.912;9.138;2022-08-25T17:43:16;7.53;;;2.90;;
37063;SDS011;23211;53.912;9.138;2022-08-25T17:46:02;4.47;;;2.67;;
37063;SDS011;23211;53.912;9.138;2022-08-25T17:48:48;8.80;;;2.65;;
37063;SDS011;23211;53.912;9.138;2022-08-25T17:51:34;7.90;;;4.10;;
37063;SDS011;23211;53.912;9.138;2022-08-25T17:54:20;11.77;;;3.30;;
37063;SDS011;23211;53.912;9.138;2022-08-25T17:57:06;18.85;;;5.75;;
37063;SDS011;23211;53.912;9.138;2022-08-25T17:59:52;8.52;;;3.83;;
37063;SDS011;23211;53.912;9.138;2022-08-25T18:02:38;11.75;;;4.13;;
37063;SDS011;23211;53.912;9.138;2022-08-25T18:05:24;13.00;;;3.95;;
37063;SDS011;23211;53.912;9.138;2022-08-25T18:08:11;8.70;;;3.97;;
37063;SDS011;23211;53.912;9.138;2022-08-25T18:10:58;13.27;;;4.00;;
37063;SDS011;23211;53.912;9.138;2022-08-25T18:13:44;10.13;;;3.50;;
37063;SDS011;23211;53.912;9.138;2022-08-25T18:16:30;6.40;;;3.53;;
37063;SDS011;23211;53.912;9.138;2022-08-25T18:19:16;9.40;;;3.63;;
37063;SDS011;23211;53.912;9.138;2022-08-25T18:22:02;17.15;;;3.60;;
37063;SDS011;23211;53.912;9.138;2022-08-25T18:24:50;9.68;;;3.22;;
37063;SDS011;23211;53.912;9.138;2022-08-25T18:27:36;6.57;;;3.53;;
37063;SDS011;23211;53.912;9.138;2022-08-25T18:30:22;7.40;;;3.30;;
37063;SDS011;23211;53.912;9.138;2022-08-25T18:33:08;7.93;;;3.42;;
37063;SDS011;23211;53.912;9.138;2022-08-25T18:35:54;17.27;;;3.15;;
37063;SDS011;23211;53.912;9.138;2022-08-25T18:38:41;7.43;;;3.55;;
37063;SDS011;23211;53.912;9.138;2022-08-25T18:41:45;4.63;;;2.88;;
37063;SDS011;23211;53.912;9.138;2022-08-25T18:44:31;6.38;;;3.40;;
37063;SDS011;23211;53.912;9.138;2022-08-25T18:47:17;13.55;;;4.35;;
37063;SDS011;23211;53.912;9.138;2022-08-25T18:50:03;10.40;;;4.30;;